createdAt,value
2017-04-07T00:00:39.544Z,60.36
2017-04-07T00:01:49.566Z,60.36
2017-04-07T00:02:59.909Z,60.36
2017-04-07T00:04:09.939Z,60.36
2017-04-07T00:05:20.321Z,60.36
2017-04-07T00:06:30.351Z,60.36
2017-04-07T00:07:40.688Z,60.36
2017-04-07T00:08:50.406Z,60.17
2017-04-07T00:10:00.466Z,60.36
2017-04-07T00:11:10.794Z,60.36
2017-04-07T00:12:20.808Z,60.36
2017-04-07T00:13:31.141Z,60.08
2017-04-07T00:14:41.720Z,60.36
2017-04-07T00:15:52.052Z,59.89
2017-04-07T00:17:02.074Z,60.36
2017-04-07T00:18:12.425Z,60.36
2017-04-07T00:19:22.446Z,60.36
2017-04-07T00:20:32.490Z,60.36
2017-04-07T00:21:42.838Z,60.27
2017-04-07T00:22:53.183Z,60.36
2017-04-07T00:24:03.192Z,60.36
2017-04-07T00:25:13.527Z,60.27
2017-04-07T00:26:23.873Z,59.89
2017-04-07T00:27:33.899Z,60.27
2017-04-07T00:28:44.232Z,60.27
2017-04-07T00:29:54.577Z,60.36
2017-04-07T00:31:04.895Z,60.36
2017-04-07T00:32:14.907Z,60.17
2017-04-07T00:33:25.242Z,59.99
2017-04-07T00:34:35.244Z,59.99
2017-04-07T00:35:45.280Z,60.17
2017-04-07T00:36:55.614Z,60.17
2017-04-07T00:38:05.634Z,60.17
2017-04-07T00:39:16.001Z,60.17
2017-04-07T00:40:26.355Z,60.17
2017-04-07T00:41:36.692Z,60.17
2017-04-07T00:42:47.028Z,59.99
2017-04-07T00:43:57.054Z,60.36
2017-04-07T00:45:07.405Z,60.36
2017-04-07T00:46:17.744Z,60.27
2017-04-07T00:47:27.760Z,59.89
2017-04-07T00:48:37.465Z,60.46
2017-04-07T00:49:47.799Z,60.46
2017-04-07T00:50:58.140Z,60.27
2017-04-07T00:52:08.481Z,60.27
2017-04-07T00:53:18.861Z,60.27
2017-04-07T00:54:29.200Z,60.36
2017-04-07T00:55:39.227Z,60.36
2017-04-07T00:56:49.579Z,60.36
2017-04-07T00:57:59.928Z,60.46
2017-04-07T00:59:10.252Z,60.36
2017-04-07T01:00:20.265Z,60.36
2017-04-07T01:01:30.289Z,59.89
2017-04-07T01:02:40.620Z,59.99
2017-04-07T01:03:50.961Z,59.99
2017-04-07T01:05:01.009Z,60.27
2017-04-07T01:06:11.343Z,60.17
2017-04-07T01:07:21.384Z,60.08
2017-04-07T01:08:31.724Z,60.27
2017-04-07T01:09:42.045Z,60.08
2017-04-07T01:10:52.389Z,60.17
2017-04-07T01:12:02.730Z,60.27
2017-04-07T01:13:12.442Z,60.27
2017-04-07T01:14:22.476Z,60.08
2017-04-07T01:15:32.478Z,60.17
2017-04-07T01:16:42.875Z,60.27
2017-04-07T01:17:53.257Z,59.89
2017-04-07T01:19:03.603Z,60.17
2017-04-07T01:20:13.986Z,59.89
2017-04-07T01:21:24.315Z,59.89
2017-04-07T01:22:34.634Z,60.36
2017-04-07T01:23:45.003Z,60.27
2017-04-07T01:24:55.353Z,59.89
2017-04-07T01:26:05.683Z,59.99
2017-04-07T01:27:16.013Z,59.99
2017-04-07T01:28:26.347Z,60.14
2017-04-07T01:29:36.701Z,60.17
2017-04-07T01:30:47.033Z,60.36
2017-04-07T01:31:57.362Z,60.36
2017-04-07T01:33:07.690Z,60.36
2017-04-07T01:34:18.022Z,60.46
2017-04-07T01:35:28.385Z,60.05
2017-04-07T01:36:38.759Z,59.99
2017-04-07T01:37:48.778Z,59.99
2017-04-07T01:38:59.106Z,60.27
2017-04-07T01:40:09.446Z,60.08
2017-04-07T01:41:19.505Z,60.24
2017-04-07T01:42:29.547Z,59.79
2017-04-07T01:43:39.271Z,60.17
2017-04-07T01:44:49.298Z,59.7
2017-04-07T01:45:59.625Z,60.17
2017-04-07T01:47:09.964Z,59.99
2017-04-07T01:48:19.973Z,59.67
2017-04-07T01:49:29.985Z,59.76
2017-04-07T01:50:39.999Z,60.27
2017-04-07T01:51:50.329Z,60.27
2017-04-07T01:53:00.662Z,60.27
2017-04-07T01:54:11.052Z,60.08
2017-04-07T01:55:21.075Z,60.24
2017-04-07T01:56:31.101Z,60.05
2017-04-07T01:57:41.436Z,60.46
2017-04-07T01:58:51.782Z,60.46
2017-04-07T02:00:02.114Z,60.08
2017-04-07T02:01:12.139Z,59.95
2017-04-07T02:02:22.163Z,60.05
2017-04-07T02:03:32.505Z,60.24
2017-04-07T02:04:42.833Z,60.05
2017-04-07T02:05:53.151Z,59.95
2017-04-07T02:07:03.481Z,60.24
2017-04-07T02:08:13.823Z,60.05
2017-04-07T02:09:23.833Z,59.95
2017-04-07T02:10:34.236Z,60.14
2017-04-07T02:11:44.582Z,60.14
2017-04-07T02:12:54.599Z,60.05
2017-04-07T02:14:04.630Z,59.86
2017-04-07T02:15:14.972Z,60.14
2017-04-07T02:16:24.999Z,60.05
2017-04-07T02:17:35.321Z,60.05
2017-04-07T02:18:45.350Z,59.92
2017-04-07T02:19:55.395Z,59.83
2017-04-07T02:21:05.408Z,60.02
2017-04-07T02:22:15.754Z,60.21
2017-04-07T02:23:26.074Z,60.02
2017-04-07T02:24:35.779Z,59.92
2017-04-07T02:25:46.126Z,59.83
2017-04-07T02:26:56.472Z,60.11
2017-04-07T02:28:06.508Z,60.02
2017-04-07T02:29:16.847Z,60.3
2017-04-07T02:30:27.180Z,60.11
2017-04-07T02:31:37.213Z,59.83
2017-04-07T02:32:47.549Z,60.3
2017-04-07T02:33:57.891Z,60.3
2017-04-07T02:35:07.631Z,60.3
2017-04-07T02:36:17.960Z,59.92
2017-04-07T02:37:28.325Z,60.21
2017-04-07T02:38:38.346Z,60.4
2017-04-07T02:39:48.366Z,60.02
2017-04-07T02:40:58.405Z,59.92
2017-04-07T02:42:08.736Z,59.83
2017-04-07T02:43:19.055Z,59.83
2017-04-07T02:44:29.406Z,60.02
2017-04-07T02:45:39.776Z,60.21
2017-04-07T02:46:50.119Z,59.92
2017-04-07T02:48:00.453Z,60.02
2017-04-07T02:49:10.804Z,60.05
2017-04-07T02:50:20.823Z,59.83
2017-04-07T02:51:31.142Z,59.67
2017-04-07T02:52:41.192Z,60.02
2017-04-07T02:53:51.520Z,60.02
2017-04-07T02:55:01.856Z,60.05
2017-04-07T02:56:11.563Z,60.05
2017-04-07T02:57:21.903Z,59.92
2017-04-07T02:58:32.245Z,60.05
2017-04-07T02:59:42.578Z,59.86
2017-04-07T03:00:52.919Z,59.57
2017-04-07T03:02:03.257Z,59.95
2017-04-07T03:32:57.696Z,57.43
2017-04-07T03:34:07.745Z,58.47
2017-04-07T03:35:18.087Z,59.61
2017-04-07T03:36:28.117Z,59.8
2017-04-07T03:37:38.445Z,60.18
2017-04-07T03:38:48.775Z,60.18
2017-04-07T03:39:59.133Z,60.57
2017-04-07T03:41:09.454Z,61.07
2017-04-07T03:42:19.479Z,60.97
2017-04-07T03:43:29.189Z,61.16
2017-04-07T03:44:39.209Z,60.97
2017-04-07T03:45:49.261Z,61.16
2017-04-07T03:46:59.594Z,61.1
2017-04-07T03:48:09.619Z,61.19
2017-04-07T03:49:19.958Z,61.19
2017-04-07T03:50:29.983Z,61
2017-04-07T03:51:40.000Z,61.48
2017-04-07T03:52:50.323Z,60.72
2017-04-07T03:54:00.648Z,60.63
2017-04-07T03:55:10.980Z,60.85
2017-04-07T03:56:21.325Z,60.46
2017-04-07T03:57:31.065Z,60.27
2017-04-07T03:58:41.406Z,60.37
2017-04-07T03:59:51.739Z,60.56
2017-04-07T04:01:01.794Z,60.27
2017-04-07T04:02:11.800Z,60.08
2017-04-07T04:03:21.816Z,60.37
2017-04-07T04:04:31.844Z,60.27
2017-04-07T04:05:41.227Z,60.46
2017-04-07T04:06:51.570Z,59.89
2017-04-07T04:08:01.903Z,59.92
2017-04-07T04:09:11.929Z,60.11
2017-04-07T04:10:22.246Z,60.11
2017-04-07T04:11:32.585Z,59.92
2017-04-07T04:12:42.921Z,59.92
2017-04-07T04:13:53.268Z,60.3
2017-04-07T04:15:03.647Z,60.4
2017-04-07T04:16:13.990Z,60.02
2017-04-07T04:17:24.009Z,59.92
2017-04-07T04:18:34.345Z,60.3
2017-04-07T04:19:44.690Z,59.92
2017-04-07T04:20:55.033Z,59.92
2017-04-07T04:22:05.049Z,60.3
2017-04-07T04:23:15.429Z,59.92
2017-04-07T04:24:25.998Z,60.02
2017-04-07T04:25:36.346Z,60.3
2017-04-07T04:26:46.688Z,59.92
2017-04-07T04:27:57.033Z,60.3
2017-04-07T04:29:07.369Z,59.64
2017-04-07T04:30:17.713Z,60.3
2017-04-07T04:31:27.733Z,60.11
2017-04-07T04:32:38.053Z,60.3
2017-04-07T04:33:48.086Z,60.21
2017-04-07T04:34:58.102Z,60.3
2017-04-07T04:36:08.135Z,60.02
2017-04-07T04:37:18.478Z,60.11
2017-04-07T04:38:28.483Z,59.92
2017-04-07T04:39:38.804Z,59.83
2017-04-07T04:40:49.146Z,60.21
2017-04-07T04:41:59.163Z,60.4
2017-04-07T04:43:09.514Z,59.92
2017-04-07T04:44:19.853Z,59.54
2017-04-07T04:45:30.225Z,59.64
2017-04-07T04:46:40.240Z,59.54
2017-04-07T04:47:50.261Z,59.83
2017-04-07T04:49:00.273Z,59.74
2017-04-07T04:50:10.617Z,59.54
2017-04-07T04:51:20.974Z,60.02
2017-04-07T04:52:31.348Z,59.64
2017-04-07T04:53:41.357Z,60.02
2017-04-07T04:54:51.692Z,60.3
2017-04-07T04:56:01.729Z,60.3
2017-04-07T04:57:11.770Z,60.3
2017-04-07T04:58:21.807Z,60.11
2017-04-07T04:59:32.168Z,59.54
2017-04-07T05:00:42.182Z,60.11
2017-04-07T05:01:51.889Z,60.3
2017-04-07T05:03:02.217Z,60.3
2017-04-07T05:04:12.544Z,60.21
2017-04-07T05:05:22.882Z,60.21
2017-04-07T05:06:32.905Z,60.02
2017-04-07T05:07:42.921Z,60.3
2017-04-07T05:08:52.966Z,60.27
2017-04-07T05:10:03.303Z,60.08
2017-04-07T05:11:13.316Z,59.7
2017-04-07T05:12:23.647Z,59.51
2017-04-07T05:13:33.988Z,60.27
2017-04-07T05:14:44.355Z,60.02
2017-04-07T05:15:54.069Z,60.18
2017-04-07T05:17:04.450Z,60.37
2017-04-07T05:18:14.791Z,59.92
2017-04-07T05:19:24.815Z,59.45
2017-04-07T05:20:35.148Z,60.18
2017-04-07T05:21:45.477Z,60.08
2017-04-07T05:22:55.808Z,59.8
2017-04-07T05:24:06.151Z,59.61
2017-04-07T05:25:16.481Z,59.7
2017-04-07T05:26:26.798Z,59.61
2017-04-07T05:27:37.132Z,59.61
2017-04-07T05:28:47.512Z,59.7
2017-04-07T05:29:57.533Z,60.02
2017-04-07T05:31:07.869Z,59.54
2017-04-07T05:32:18.205Z,59.51
2017-04-07T05:33:28.537Z,59.35
2017-04-07T05:34:38.558Z,59.54
2017-04-07T05:35:48.276Z,59.35
2017-04-07T05:36:58.296Z,59.26
2017-04-07T05:38:08.308Z,59.26
2017-04-07T05:39:18.657Z,59.26
2017-04-07T05:40:28.989Z,59.26
2017-04-07T05:41:38.697Z,59.26
2017-04-07T05:42:49.038Z,59.26
2017-04-07T05:43:59.369Z,59.64
2017-04-07T05:45:09.717Z,59.74
2017-04-07T05:46:20.040Z,59.64
2017-04-07T05:47:30.070Z,59.16
2017-04-07T05:48:40.407Z,59.74
2017-04-07T05:49:50.733Z,59.45
2017-04-07T05:51:01.090Z,59.26
2017-04-07T05:52:11.113Z,59.45
2017-04-07T05:53:20.833Z,59.16
2017-04-07T05:54:30.540Z,59.35
2017-04-07T05:55:40.571Z,59.54
2017-04-07T05:56:50.900Z,59.45
2017-04-07T05:58:00.935Z,59.45
2017-04-07T05:59:11.282Z,59.83
2017-04-07T06:00:20.990Z,59.83
2017-04-07T06:01:30.706Z,59.35
2017-04-07T06:02:41.019Z,59.45
2017-04-07T06:03:51.029Z,59.26
2017-04-07T06:05:01.042Z,59.45
2017-04-07T06:06:11.066Z,59.26
2017-04-07T06:07:20.774Z,59.16
2017-04-07T06:08:31.108Z,59.35
2017-04-07T06:09:41.447Z,59.45
2017-04-07T06:10:51.772Z,59.45
2017-04-07T06:12:02.055Z,59.09
2017-04-07T06:13:12.400Z,59.28
2017-04-07T06:14:22.729Z,58.72
2017-04-07T06:15:33.071Z,59.09
2017-04-07T06:16:43.404Z,59.09
2017-04-07T06:17:53.782Z,58.91
2017-04-07T06:19:04.118Z,59
2017-04-07T06:20:14.150Z,59
2017-04-07T06:21:24.165Z,59.09
2017-04-07T06:22:34.183Z,58.81
2017-04-07T06:23:44.494Z,59.09
2017-04-07T06:24:54.523Z,58.84
2017-04-07T06:26:04.871Z,59.12
2017-04-07T06:27:15.209Z,59.19
2017-04-07T06:28:25.536Z,59.48
2017-04-07T06:29:35.546Z,59.41
2017-04-07T06:30:45.869Z,58.62
2017-04-07T06:31:55.574Z,58.94
2017-04-07T06:33:05.931Z,58.65
2017-04-07T06:34:16.259Z,58.65
2017-04-07T06:35:26.287Z,58.65
2017-04-07T06:36:36.308Z,58.29
2017-04-07T06:37:46.645Z,57.82
2017-04-07T06:38:56.976Z,57.92
2017-04-07T06:40:06.997Z,58.48
2017-04-07T06:41:17.324Z,58.77
2017-04-07T06:42:27.352Z,59.16
2017-04-07T06:43:37.067Z,58.68
2017-04-07T06:44:47.083Z,58.77
2017-04-07T06:45:57.445Z,58.87
2017-04-07T06:47:07.478Z,58.77
2017-04-07T06:48:17.824Z,58.77
2017-04-07T06:49:28.169Z,58.77
2017-04-07T06:50:38.518Z,58.97
2017-04-07T06:51:48.535Z,58.77
2017-04-07T06:52:58.871Z,58.68
2017-04-07T06:54:09.230Z,59.19
2017-04-07T06:55:19.557Z,58.9
2017-04-07T06:56:29.562Z,58.14
2017-04-07T06:57:39.274Z,58.42
2017-04-07T06:58:49.306Z,57.68
2017-04-07T06:59:59.024Z,57.59
2017-04-07T07:01:09.378Z,57.68
2017-04-07T07:02:19.713Z,56.85
2017-04-07T07:03:30.035Z,57.14
2017-04-07T07:04:40.379Z,57.62
2017-04-07T07:05:50.407Z,57.43
2017-04-07T07:07:00.749Z,58.1
2017-04-07T07:08:11.083Z,58
2017-04-07T07:09:21.406Z,58.38
2017-04-07T07:10:31.727Z,58.29
2017-04-07T07:11:42.060Z,58.19
2017-04-07T07:12:52.417Z,58.29
2017-04-07T07:14:02.763Z,58.38
2017-04-07T07:15:13.117Z,58.38
2017-04-07T07:16:23.490Z,58.38
2017-04-07T07:17:33.505Z,58.76
2017-04-07T07:18:43.840Z,58.76
2017-04-07T07:19:54.171Z,59.15
2017-04-07T07:21:04.508Z,58.67
2017-04-07T07:22:14.862Z,57.9
2017-04-07T07:23:24.891Z,58.41
2017-04-07T07:24:34.934Z,58.51
2017-04-07T07:25:45.258Z,57.84
2017-04-07T07:26:55.591Z,57.87
2017-04-07T07:28:05.941Z,57.58
2017-04-07T07:29:16.287Z,57.58
2017-04-07T07:30:26.614Z,57.39
2017-04-07T07:31:36.648Z,58.06
2017-04-07T07:32:46.993Z,58.06
2017-04-07T07:33:56.687Z,57.97
2017-04-07T07:35:06.722Z,58.34
2017-04-07T07:36:17.052Z,58.51
2017-04-07T07:37:27.381Z,58.8
2017-04-07T07:38:37.429Z,59.08
2017-04-07T07:39:47.775Z,58.89
2017-04-07T07:40:58.117Z,58.8
2017-04-07T07:42:08.485Z,58.89
2017-04-07T07:43:18.512Z,58.89
2017-04-07T07:44:28.862Z,58.8
2017-04-07T07:45:39.223Z,59.08
2017-04-07T07:46:49.552Z,58.89
2017-04-07T07:47:59.877Z,58.98
2017-04-07T07:49:10.208Z,58.76
2017-04-07T07:50:20.531Z,58.7
2017-04-07T07:51:30.572Z,58.76
2017-04-07T07:52:40.919Z,58.86
2017-04-07T07:53:51.249Z,59.18
2017-04-07T07:55:01.263Z,58.89
2017-04-07T07:56:11.616Z,58.8
2017-04-07T07:57:21.937Z,58.76
2017-04-07T07:58:31.644Z,58.89
2017-04-07T07:59:41.704Z,58.76
2017-04-07T08:00:52.035Z,58.95
2017-04-07T08:02:02.418Z,59.05
2017-04-07T08:03:12.795Z,59.08
2017-04-07T08:04:22.834Z,58.89
2017-04-07T08:05:33.425Z,58.8
2017-04-07T08:06:43.999Z,58.86
2017-04-07T08:07:54.367Z,59.24
2017-04-07T08:09:04.711Z,59.15
2017-04-07T08:10:14.751Z,59.24
2017-04-07T08:11:24.801Z,58.86
2017-04-07T08:12:35.165Z,58.86
2017-04-07T08:13:44.879Z,58.86
2017-04-07T08:14:55.253Z,58.61
2017-04-07T08:16:05.627Z,58.51
2017-04-07T08:17:15.977Z,58.89
2017-04-07T08:18:26.321Z,58.8
2017-04-07T08:19:36.669Z,59.05
2017-04-07T08:20:47.011Z,58.98
2017-04-07T08:21:56.745Z,58.8
2017-04-07T08:23:06.778Z,58.61
2017-04-07T08:24:17.126Z,58.8
2017-04-07T08:25:27.157Z,58.89
2017-04-07T08:26:37.195Z,58.8
2017-04-07T08:27:47.240Z,58.7
2017-04-07T08:28:57.314Z,58.61
2017-04-07T08:30:07.669Z,58.41
2017-04-07T08:31:18.035Z,58.34
2017-04-07T08:32:28.431Z,58.25
2017-04-07T08:33:38.521Z,58.54
2017-04-07T08:34:48.660Z,58.34
2017-04-07T08:35:59.053Z,58.44
2017-04-07T08:37:09.199Z,58.63
2017-04-07T08:38:19.325Z,58.44
2017-04-07T08:39:29.775Z,58.63
2017-04-07T08:40:40.115Z,58.92
2017-04-07T08:41:50.464Z,58.7
2017-04-07T08:43:00.502Z,58.61
2017-04-07T08:44:10.540Z,59.27
2017-04-07T08:45:20.866Z,59.27
2017-04-07T08:46:31.453Z,59.08
2017-04-07T08:47:41.472Z,59.37
2017-04-07T08:48:51.828Z,59.27
2017-04-07T08:50:02.197Z,58.98
2017-04-07T08:51:12.238Z,58.89
2017-04-07T08:52:22.579Z,58.89
2017-04-07T08:53:32.939Z,58.7
2017-04-07T08:54:42.651Z,58.8
2017-04-07T08:55:52.714Z,58.8
2017-04-07T08:57:03.065Z,58.8
2017-04-07T08:58:13.423Z,59.18
2017-04-07T08:59:23.783Z,58.98
2017-04-07T09:00:33.826Z,58.98
2017-04-07T09:01:44.173Z,58.89
2017-04-07T09:02:54.539Z,58.8
2017-04-07T09:04:04.898Z,58.8
2017-04-07T09:05:14.950Z,58.61
2017-04-07T09:06:24.681Z,59.05
2017-04-07T09:07:35.047Z,58.95
2017-04-07T09:08:45.403Z,59.63
2017-04-07T09:09:55.452Z,58.95
2017-04-07T09:11:05.799Z,58.95
2017-04-07T09:12:15.579Z,59.24
2017-04-07T09:13:25.936Z,59.24
2017-04-07T09:14:35.965Z,58.76
2017-04-07T09:15:46.316Z,59.24
2017-04-07T09:16:56.657Z,58.22
2017-04-07T09:18:06.700Z,58.12
2017-04-07T09:19:16.420Z,58.12
2017-04-07T09:20:26.766Z,57.75
2017-04-07T09:21:37.114Z,57.55
2017-04-07T09:22:47.181Z,58.22
2017-04-07T09:23:57.533Z,58.12
2017-04-07T09:25:07.585Z,57.65
2017-04-07T09:26:17.021Z,57.93
2017-04-07T09:27:27.370Z,57.84
2017-04-07T09:28:37.727Z,58.32
2017-04-07T09:29:48.073Z,58.51
2017-04-07T09:30:58.489Z,58.41
2017-04-07T09:32:08.773Z,58.51
2017-04-07T09:33:18.967Z,58.41
2017-04-07T09:34:29.018Z,58.51
2017-04-07T09:35:39.376Z,58.7
2017-04-07T09:36:49.464Z,59.18
2017-04-07T09:37:59.812Z,58.8
2017-04-07T09:39:10.162Z,58.89
2017-04-07T09:40:20.561Z,59.27
2017-04-07T09:41:30.925Z,58.76
2017-04-07T09:42:41.274Z,58.95
2017-04-07T09:43:51.660Z,58.76
2017-04-07T09:45:02.155Z,58.67
2017-04-07T09:46:12.586Z,59.05
2017-04-07T09:47:23.203Z,58.58
2017-04-07T09:48:33.499Z,58.95
2017-04-07T09:49:43.461Z,58.76
2017-04-07T09:50:53.518Z,58.76
2017-04-07T09:52:03.874Z,58.95
2017-04-07T09:53:14.255Z,58.86
2017-04-07T09:54:24.612Z,58.76
2017-04-07T09:55:34.980Z,58.19
2017-04-07T09:56:45.013Z,58.38
2017-04-07T09:57:55.360Z,58.38
2017-04-07T09:59:05.711Z,58.29
2017-04-07T10:00:16.074Z,58.29
2017-04-07T10:01:26.436Z,58.38
2017-04-07T10:02:36.796Z,58.38
2017-04-07T10:03:46.539Z,58.48
2017-04-07T10:04:56.932Z,58.19
2017-04-07T10:06:07.280Z,58.38
2017-04-07T10:07:17.649Z,58.38
2017-04-07T10:08:27.696Z,58.48
2017-04-07T10:09:38.050Z,58.1
2017-04-07T10:10:48.411Z,58.1
2017-04-07T10:11:58.787Z,57.81
2017-04-07T10:13:09.164Z,58
2017-04-07T10:14:19.237Z,57.71
2017-04-07T10:15:29.568Z,58.38
2017-04-07T10:16:39.973Z,58.29
2017-04-07T10:17:50.356Z,58.45
2017-04-07T10:19:00.370Z,58.36
2017-04-07T10:20:10.412Z,58.26
2017-04-07T10:21:20.757Z,58.54
2017-04-07T10:22:31.088Z,58.07
2017-04-07T10:23:41.430Z,58.07
2017-04-07T10:24:51.466Z,58.29
2017-04-07T10:26:01.821Z,57.9
2017-04-07T10:27:12.177Z,57.81
2017-04-07T10:28:22.226Z,58.54
2017-04-07T10:29:32.251Z,58.93
2017-04-07T10:30:42.307Z,58.73
2017-04-07T10:31:52.682Z,59.09
2017-04-07T10:33:02.720Z,59.19
2017-04-07T10:34:13.080Z,59.56
2017-04-07T10:35:23.421Z,58.99
2017-04-07T10:36:33.794Z,59.28
2017-04-07T10:37:43.547Z,58.8
2017-04-07T10:38:53.939Z,58.8
2017-04-07T10:40:04.319Z,58.8
2017-04-07T10:41:14.686Z,58.8
2017-04-07T10:42:24.734Z,58.7
2017-04-07T10:43:35.065Z,58.9
2017-04-07T10:44:45.407Z,58.9
2017-04-07T10:45:55.735Z,58.7
2017-04-07T10:47:06.066Z,58.8
2017-04-07T10:48:16.417Z,58.9
2017-04-07T10:49:26.442Z,58.99
2017-04-07T10:50:36.790Z,59.16
2017-04-07T10:51:46.823Z,59.25
2017-04-07T10:52:57.149Z,59.53
2017-04-07T10:54:07.497Z,59.44
2017-04-07T10:55:17.832Z,59.34
2017-04-07T10:56:27.877Z,59.44
2017-04-07T10:57:37.940Z,59.6
2017-04-07T10:58:48.277Z,59.53
2017-04-07T10:59:58.606Z,58.87
2017-04-07T11:01:08.636Z,58.87
2017-04-07T11:02:18.982Z,58.77
2017-04-07T11:03:29.323Z,58.87
2017-04-07T11:04:39.369Z,58.97
2017-04-07T11:05:49.744Z,59.16
2017-04-07T11:06:59.800Z,58.97
2017-04-07T11:08:10.137Z,58.58
2017-04-07T11:09:20.451Z,58.77
2017-04-07T11:10:30.789Z,58.58
2017-04-07T11:11:40.807Z,58.33
2017-04-07T11:12:51.148Z,58.23
2017-04-07T11:14:01.491Z,58.51
2017-04-07T11:15:11.829Z,58.33
2017-04-07T11:16:22.148Z,58.51
2017-04-07T11:17:32.159Z,58.51
2017-04-07T11:18:42.511Z,58.9
2017-04-07T11:19:52.868Z,58.99
2017-04-07T11:21:02.895Z,58.99
2017-04-07T11:22:13.227Z,58.7
2017-04-07T11:23:23.569Z,58.7
2017-04-07T11:24:33.592Z,58.99
2017-04-07T11:25:43.625Z,58.99
2017-04-07T11:26:53.961Z,58.8
2017-04-07T11:28:03.974Z,58.9
2017-04-07T11:29:14.318Z,59.16
2017-04-07T11:30:24.665Z,58.68
2017-04-07T11:31:35.011Z,59.06
2017-04-07T11:32:45.038Z,59.38
2017-04-07T11:33:55.381Z,58.7
2017-04-07T11:35:05.715Z,59.09
2017-04-07T11:36:15.764Z,58.9
2017-04-07T11:37:26.104Z,58.7
2017-04-07T11:38:36.432Z,58.8
2017-04-07T11:39:46.454Z,58.8
2017-04-07T11:40:56.801Z,58.99
2017-04-07T11:42:06.838Z,58.99
2017-04-07T11:43:16.868Z,58.99
2017-04-07T11:44:27.449Z,59.19
2017-04-07T11:45:37.806Z,59.28
2017-04-07T11:46:47.843Z,59.19
2017-04-07T11:47:57.868Z,58.9
2017-04-07T11:49:08.205Z,58.61
2017-04-07T11:50:18.541Z,58.7
2017-04-07T11:51:28.582Z,58.8
2017-04-07T11:52:38.919Z,58.8
2017-04-07T11:53:48.938Z,58.61
2017-04-07T11:54:59.276Z,58.7
2017-04-07T11:56:09.297Z,58.8
2017-04-07T11:57:19.333Z,58.54
2017-04-07T11:58:29.364Z,57.87
2017-04-07T11:59:39.726Z,58.07
2017-04-07T12:00:49.134Z,58.45
2017-04-07T12:01:59.490Z,58.48
2017-04-07T12:03:09.523Z,58.48
2017-04-07T12:04:19.548Z,58.1
2017-04-07T12:05:29.570Z,58.29
2017-04-07T12:06:39.587Z,58.93
2017-04-07T12:07:49.941Z,59.02
2017-04-07T12:09:00.287Z,58.93
2017-04-07T12:10:10.002Z,58.58
2017-04-07T12:11:20.365Z,58.76
2017-04-07T12:12:30.930Z,58.76
2017-04-07T12:13:40.949Z,58.86
2017-04-07T12:14:50.666Z,59.22
2017-04-07T12:16:01.030Z,59.59
2017-04-07T12:17:11.051Z,59.41
2017-04-07T12:18:21.106Z,59.5
2017-04-07T12:19:31.442Z,59.88
2017-04-07T12:20:41.449Z,59.41
2017-04-07T12:21:51.502Z,59.41
2017-04-07T12:23:01.840Z,59.69
2017-04-07T12:24:11.879Z,59.59
2017-04-07T12:25:21.907Z,59.59
2017-04-07T12:26:32.276Z,59.5
2017-04-07T12:27:42.643Z,59.59
2017-04-07T12:28:52.993Z,59.59
2017-04-07T12:30:03.338Z,59.5
2017-04-07T12:31:13.358Z,59.78
2017-04-07T12:32:23.096Z,59.5
2017-04-07T12:33:33.147Z,60.07
2017-04-07T12:34:43.218Z,59.59
2017-04-07T12:35:53.573Z,59.88
2017-04-07T12:37:03.916Z,60.36
2017-04-07T12:38:14.276Z,60.61
2017-04-07T12:39:24.310Z,60.33
2017-04-07T12:40:34.668Z,60.24
2017-04-07T12:41:45.019Z,60.14
2017-04-07T12:42:55.386Z,60.04
2017-04-07T12:44:05.715Z,60.02
2017-04-07T12:45:16.049Z,59.85
2017-04-07T12:46:26.082Z,59.95
2017-04-07T12:47:36.442Z,59.85
2017-04-07T12:48:46.483Z,59.76
2017-04-07T12:49:56.827Z,59.66
2017-04-07T12:51:06.561Z,59.95
2017-04-07T12:52:16.271Z,59.66
2017-04-07T12:53:26.665Z,59.85
2017-04-07T12:54:37.083Z,59.85
2017-04-07T12:55:47.121Z,59.47
2017-04-07T12:56:56.835Z,60.04
2017-04-07T12:58:07.210Z,60.24
2017-04-07T12:59:17.557Z,59.85
2017-04-07T13:00:27.898Z,59.85
2017-04-07T13:01:38.239Z,59.85
2017-04-07T13:02:48.582Z,60.14
2017-04-07T13:03:58.604Z,60.14
2017-04-07T13:05:08.961Z,60.14
2017-04-07T13:06:19.313Z,60.04
2017-04-07T13:07:29.658Z,59.56
2017-04-07T13:08:39.989Z,59.5
2017-04-07T13:09:50.340Z,59.41
2017-04-07T13:11:00.372Z,59.59
2017-04-07T13:12:09.784Z,58.73
2017-04-07T13:13:20.116Z,59.12
2017-04-07T13:14:29.813Z,59.12
2017-04-07T13:15:39.542Z,59.59
2017-04-07T13:16:49.574Z,59.5
2017-04-07T13:17:59.916Z,59.59
2017-04-07T13:19:10.283Z,59.59
2017-04-07T13:20:20.620Z,59.02
2017-04-07T13:21:30.968Z,58.73
2017-04-07T13:22:41.309Z,59.12
2017-04-07T13:23:51.018Z,59.12
2017-04-07T13:25:01.058Z,59.02
2017-04-07T13:26:11.079Z,59.22
2017-04-07T13:27:21.422Z,59.12
2017-04-07T13:28:31.780Z,58.93
2017-04-07T13:29:42.142Z,58.83
2017-04-07T13:30:52.485Z,58.73
2017-04-07T13:32:02.832Z,58.73
2017-04-07T13:33:13.215Z,59.59
2017-04-07T13:34:23.253Z,59.5
2017-04-07T13:35:32.973Z,58.93
2017-04-07T13:36:42.990Z,58.93
2017-04-07T13:37:53.347Z,58.86
2017-04-07T13:39:03.694Z,59.59
2017-04-07T13:40:13.719Z,59.78
2017-04-07T13:41:24.053Z,59.59
2017-04-07T13:42:34.402Z,59.41
2017-04-07T13:43:44.456Z,59.5
2017-04-07T13:44:54.171Z,59.53
2017-04-07T13:46:04.520Z,59.59
2017-04-07T13:47:14.561Z,59.98
2017-04-07T13:48:24.901Z,60.17
2017-04-07T13:49:35.243Z,59.69
2017-04-07T13:50:45.573Z,59.72
2017-04-07T13:51:55.623Z,59.72
2017-04-07T13:53:05.342Z,59.41
2017-04-07T13:54:15.365Z,59.98
2017-04-07T13:55:25.713Z,59.41
2017-04-07T13:56:35.734Z,60.1
2017-04-07T13:57:46.076Z,59.69
2017-04-07T13:58:56.415Z,59.88
2017-04-07T14:00:06.748Z,59.78
2017-04-07T14:01:17.098Z,59.88
2017-04-07T14:02:26.817Z,60.07
2017-04-07T14:03:36.844Z,59.88
2017-04-07T14:04:47.190Z,59.88
2017-04-07T14:05:57.514Z,59.88
2017-04-07T14:07:07.878Z,59.78
2017-04-07T14:08:17.923Z,59.88
2017-04-07T14:09:28.275Z,59.88
2017-04-07T14:10:38.629Z,59.69
2017-04-07T14:11:48.652Z,59.5
2017-04-07T14:12:58.990Z,59.53
2017-04-07T14:14:09.344Z,59.63
2017-04-07T14:15:19.698Z,59.15
2017-04-07T14:16:30.083Z,59.24
2017-04-07T14:17:40.438Z,58.7
2017-04-07T14:18:50.803Z,58.89
2017-04-07T14:20:01.164Z,58.76
2017-04-07T14:21:11.510Z,59.05
2017-04-07T14:22:21.572Z,58.89
2017-04-07T14:23:31.914Z,59.66
2017-04-07T14:24:42.292Z,59.66
2017-04-07T14:25:52.628Z,59.91
2017-04-07T14:27:02.665Z,59.81
2017-04-07T14:28:13.003Z,59.91
2017-04-07T14:29:23.346Z,59.81
2017-04-07T14:30:33.375Z,60.01
2017-04-07T14:31:43.721Z,60.01
2017-04-07T14:32:54.105Z,59.81
2017-04-07T14:34:04.475Z,60.01
2017-04-07T14:35:14.820Z,59.81
2017-04-07T14:36:25.163Z,59.81
2017-04-07T14:37:35.514Z,59.81
2017-04-07T14:38:45.558Z,60.2
2017-04-07T14:39:55.639Z,60.58
2017-04-07T14:41:05.988Z,60.17
2017-04-07T14:42:16.039Z,60.46
2017-04-07T14:43:26.390Z,60.27
2017-04-07T14:44:36.726Z,60.07
2017-04-07T14:45:46.457Z,60.36
2017-04-07T14:46:56.777Z,60.27
2017-04-07T14:48:07.110Z,60.36
2017-04-07T14:49:17.455Z,60.33
2017-04-07T14:50:27.811Z,60.61
2017-04-07T14:51:38.161Z,60.42
2017-04-07T14:52:47.922Z,60.42
2017-04-07T14:53:57.971Z,60.52
2017-04-07T14:55:08.051Z,60.33
2017-04-07T14:56:18.383Z,60.52
2017-04-07T14:57:28.417Z,60.81
2017-04-07T14:58:38.776Z,60.3
2017-04-07T14:59:49.112Z,60.49
2017-04-07T15:00:59.449Z,60.02
2017-04-07T15:02:09.798Z,60.21
2017-04-07T15:03:20.154Z,60.71
2017-04-07T15:04:30.495Z,60.24
2017-04-07T15:05:40.885Z,60.14
2017-04-07T15:06:50.913Z,60.14
2017-04-07T15:08:01.259Z,60.42
2017-04-07T15:09:11.597Z,60.33
2017-04-07T15:10:21.958Z,60.04
2017-04-07T15:11:32.295Z,59.85
2017-04-07T15:12:42.675Z,59.66
2017-04-07T15:13:53.031Z,60.04
2017-04-07T15:15:03.378Z,60.14
2017-04-07T15:16:13.739Z,60.04
2017-04-07T15:17:24.101Z,59.76
2017-04-07T15:18:34.423Z,60.04
2017-04-07T15:19:44.793Z,60.42
2017-04-07T15:20:55.147Z,60.04
2017-04-07T15:22:05.495Z,59.85
2017-04-07T15:23:15.526Z,60.04
2017-04-07T15:24:25.876Z,60.52
2017-04-07T15:25:35.964Z,60.42
2017-04-07T15:26:46.297Z,60.42
2017-04-07T15:27:56.328Z,60.33
2017-04-07T15:29:06.057Z,60.33
2017-04-07T15:30:16.101Z,60.33
2017-04-07T15:31:26.435Z,60.33
2017-04-07T15:32:36.789Z,60.42
2017-04-07T15:33:47.143Z,60.52
2017-04-07T15:34:57.481Z,60.42
2017-04-07T15:36:07.805Z,60.33
2017-04-07T15:37:18.141Z,59.85
2017-04-07T15:38:28.177Z,60.42